createdAt,value
2022-09-01T00:00:53.509Z,66.87
2022-09-01T00:01:53.498Z,68.31
2022-09-01T00:02:53.584Z,68.31
2022-09-01T00:03:53.543Z,67.68
2022-09-01T00:04:53.459Z,68.01
2022-09-01T00:05:53.446Z,67.61
2022-09-01T00:06:53.432Z,67.00
2022-09-01T00:07:53.435Z,68.01
2022-09-01T00:08:53.421Z,68.11
2022-09-01T00:09:53.398Z,67.14
2022-09-01T00:10:53.389Z,66.91
2022-09-01T00:11:53.382Z,67.81
2022-09-01T00:12:53.409Z,67.00
2022-09-01T00:13:53.366Z,68.01
2022-09-01T00:14:53.344Z,67.91
2022-09-01T00:15:53.389Z,67.84
2022-09-01T00:16:53.326Z,67.64
2022-09-01T00:17:53.308Z,67.84
2022-09-01T00:18:53.306Z,67.84
2022-09-01T00:19:53.298Z,68.04
2022-09-01T00:20:53.282Z,68.15
2022-09-01T00:21:53.276Z,67.64
2022-09-01T00:22:53.262Z,67.84
2022-09-01T00:23:53.260Z,68.65
2022-09-01T00:24:53.229Z,68.65
2022-09-01T00:25:53.218Z,67.84
2022-09-01T00:26:53.213Z,68.58
2022-09-01T00:27:53.203Z,68.88
2022-09-01T00:28:53.204Z,68.18
2022-09-01T00:29:53.176Z,68.18
2022-09-01T00:30:53.202Z,69.09
2022-09-01T00:31:53.165Z,68.88
2022-09-01T00:32:53.138Z,68.28
2022-09-01T00:33:53.151Z,68.88
2022-09-01T00:34:53.116Z,69.38
2022-09-01T00:35:53.114Z,68.95
2022-09-01T00:36:53.100Z,68.38
2022-09-01T00:37:53.090Z,68.18
2022-09-01T00:38:53.085Z,68.38
2022-09-01T00:39:53.066Z,68.24
2022-09-01T00:40:53.155Z,69.05
2022-09-01T00:41:53.044Z,68.78
2022-09-01T00:42:53.029Z,69.29
2022-09-01T00:43:53.032Z,68.48
2022-09-01T00:44:53.006Z,69.38
2022-09-01T00:45:53.098Z,68.88
2022-09-01T00:46:55.317Z,69.18
2022-09-01T00:47:52.974Z,68.88
2022-09-01T00:48:52.974Z,68.68
2022-09-01T00:49:52.955Z,69.09
2022-09-01T00:50:54.690Z,69.09
2022-09-01T00:51:52.936Z,69.38
2022-09-01T00:52:52.931Z,68.48
2022-09-01T00:53:52.920Z,68.68
2022-09-01T00:54:52.899Z,68.41
2022-09-01T00:55:52.888Z,68.68
2022-09-01T00:56:57.747Z,68.78
2022-09-01T00:57:53.877Z,69.38
2022-09-01T00:58:52.870Z,69.29
2022-09-01T00:59:52.844Z,68.88
2022-09-01T01:00:52.830Z,69.49
2022-09-01T01:01:52.858Z,69.72
2022-09-01T01:02:52.858Z,69.82
2022-09-01T01:03:52.813Z,69.42
2022-09-01T01:04:52.960Z,69.52
2022-09-01T01:05:52.777Z,69.42
2022-09-01T01:06:52.755Z,69.32
2022-09-01T01:07:52.745Z,69.32
2022-09-01T01:08:52.748Z,69.72
2022-09-01T01:09:52.727Z,69.92
2022-09-01T01:10:52.719Z,70.32
2022-09-01T01:11:52.706Z,70.36
2022-09-01T01:12:52.703Z,70.36
2022-09-01T01:13:52.694Z,70.86
2022-09-01T01:14:52.668Z,70.36
2022-09-01T01:15:52.656Z,70.66
2022-09-01T01:16:52.722Z,70.36
2022-09-01T01:17:52.641Z,71.17
2022-09-01T01:18:52.648Z,70.53
2022-09-01T01:19:52.619Z,70.36
2022-09-01T01:20:52.601Z,69.85
2022-09-01T01:21:52.589Z,69.85
2022-09-01T01:22:52.585Z,70.06
2022-09-01T01:23:52.586Z,70.15
2022-09-01T01:24:52.562Z,70.06
2022-09-01T01:25:52.552Z,70.46
2022-09-01T01:26:52.540Z,70.02
2022-09-01T01:27:52.523Z,70.76
2022-09-01T01:28:52.524Z,70.46
2022-09-01T01:29:52.516Z,70.26
2022-09-01T01:30:52.767Z,70.66
2022-09-01T01:31:52.478Z,70.26
2022-09-01T01:32:52.471Z,70.66
2022-09-01T01:33:52.473Z,70.46
2022-09-01T01:34:52.449Z,70.97
2022-09-01T01:35:52.431Z,70.86
2022-09-01T01:36:52.460Z,70.86
2022-09-01T01:37:52.412Z,71.06
2022-09-01T01:38:52.424Z,71.17
2022-09-01T01:39:52.387Z,71.57
2022-09-01T01:40:52.383Z,71.57
2022-09-01T01:41:52.369Z,71.26
2022-09-01T01:42:52.361Z,71.87
2022-09-01T01:43:52.367Z,71.77
2022-09-01T01:44:52.343Z,71.80
2022-09-01T01:45:52.587Z,72.20
2022-09-01T01:46:52.321Z,72.11
2022-09-01T01:47:52.303Z,72.00
2022-09-01T01:48:52.310Z,72.11
2022-09-01T01:49:52.282Z,72.20
2022-09-01T01:50:52.273Z,73.01
2022-09-01T01:51:52.254Z,72.00
2022-09-01T01:52:58.321Z,71.91
2022-09-01T01:53:53.249Z,72.00
2022-09-01T01:54:52.224Z,72.00
2022-09-01T01:55:52.207Z,72.11
2022-09-01T01:56:52.203Z,71.80
2022-09-01T01:57:52.192Z,72.20
2022-09-01T01:58:52.195Z,71.91
2022-09-01T01:59:52.163Z,72.11
2022-09-01T02:00:52.163Z,72.11
2022-09-01T02:01:52.193Z,71.80
2022-09-01T02:02:52.215Z,72.11
2022-09-01T02:03:52.159Z,72.20
2022-09-01T02:04:52.107Z,72.51
2022-09-01T02:05:52.095Z,72.20
2022-09-01T02:06:52.097Z,72.20
2022-09-01T02:07:52.135Z,72.20
2022-09-01T02:08:52.068Z,71.91
2022-09-01T02:09:52.080Z,71.91
2022-09-01T02:10:52.077Z,71.80
2022-09-01T02:11:52.073Z,72.00
2022-09-01T02:12:52.051Z,73.11
2022-09-01T02:13:52.006Z,72.34
2022-09-01T02:14:52.006Z,71.91
2022-09-01T02:15:51.982Z,72.31
2022-09-01T02:16:52.225Z,72.20
2022-09-01T02:17:51.962Z,72.20
2022-09-01T02:18:51.948Z,72.00
2022-09-01T02:19:51.956Z,71.80
2022-09-01T02:20:51.928Z,72.11
2022-09-01T02:21:51.916Z,72.11
2022-09-01T02:22:51.904Z,72.00
2022-09-01T02:23:51.899Z,71.80
2022-09-01T02:24:51.903Z,71.91
2022-09-01T02:26:14.537Z,71.91
2022-09-01T02:26:52.872Z,71.91
2022-09-01T02:27:51.849Z,71.80
2022-09-01T02:28:55.315Z,72.00
2022-09-01T02:29:51.848Z,71.60
2022-09-01T02:30:51.947Z,71.20
2022-09-01T02:31:51.801Z,71.40
2022-09-01T02:32:51.801Z,71.30
2022-09-01T02:33:51.789Z,71.40
2022-09-01T02:34:51.787Z,71.30
2022-09-01T02:35:51.757Z,71.30
2022-09-01T02:36:51.751Z,71.60
2022-09-01T02:37:51.742Z,71.91
2022-09-01T02:38:53.703Z,71.91
2022-09-01T02:39:52.736Z,72.04
2022-09-01T02:40:51.700Z,72.31
2022-09-01T02:41:51.693Z,72.20
2022-09-01T02:42:51.683Z,71.84
2022-09-01T02:43:51.674Z,72.44
2022-09-01T02:44:51.674Z,72.14
2022-09-01T02:45:51.719Z,72.44
2022-09-01T02:46:51.637Z,71.84
2022-09-01T02:47:51.637Z,71.94
2022-09-01T02:48:51.625Z,71.94
2022-09-01T02:49:51.637Z,71.94
2022-09-01T02:50:51.591Z,72.04
2022-09-01T02:51:51.584Z,71.84
2022-09-01T02:52:51.568Z,72.14
2022-09-01T02:53:51.570Z,72.14
2022-09-01T02:54:51.537Z,72.04
2022-09-01T02:55:51.537Z,71.94
2022-09-01T02:56:51.523Z,72.04
2022-09-01T02:57:51.504Z,71.94
2022-09-01T02:58:51.498Z,71.73
2022-09-01T02:59:51.482Z,71.73
2022-09-01T03:00:51.537Z,71.84
2022-09-01T03:01:51.458Z,71.84
2022-09-01T03:02:51.455Z,71.73
2022-09-01T03:03:51.494Z,72.14
2022-09-01T03:04:51.514Z,71.94
2022-09-01T03:05:51.435Z,72.44
2022-09-01T03:06:51.399Z,71.84
2022-09-01T03:07:51.390Z,71.73
2022-09-01T03:08:51.391Z,71.60
2022-09-01T03:09:51.372Z,71.23
2022-09-01T03:10:51.373Z,71.53
2022-09-01T03:11:51.347Z,71.20
2022-09-01T03:12:51.349Z,71.50
2022-09-01T03:13:51.329Z,71.30
2022-09-01T03:14:51.315Z,71.33
2022-09-01T03:15:51.313Z,71.44
2022-09-01T03:16:51.333Z,71.40
2022-09-01T03:17:51.275Z,71.53
2022-09-01T03:18:51.274Z,71.40
2022-09-01T03:19:51.259Z,71.10
2022-09-01T03:20:51.264Z,71.30
2022-09-01T03:21:51.235Z,71.00
2022-09-01T03:22:51.228Z,70.69
2022-09-01T03:23:51.214Z,71.10
2022-09-01T03:24:51.193Z,70.89
2022-09-01T03:25:51.236Z,70.73
2022-09-01T03:26:51.179Z,70.89
2022-09-01T03:27:51.168Z,70.89
2022-09-01T03:28:51.148Z,70.32
2022-09-01T03:29:51.146Z,70.89
2022-09-01T03:30:51.147Z,71.10
2022-09-01T03:31:51.194Z,70.69
2022-09-01T03:32:51.108Z,70.62
2022-09-01T03:33:51.167Z,70.89
2022-09-01T03:34:51.089Z,70.69
2022-09-01T03:35:51.089Z,70.93
2022-09-01T03:36:51.082Z,70.83
2022-09-01T03:37:51.051Z,70.62
2022-09-01T03:38:51.041Z,70.62
2022-09-01T03:39:51.043Z,70.19
2022-09-01T03:40:52.037Z,70.83
2022-09-01T03:41:51.008Z,70.42
2022-09-01T03:42:50.988Z,70.83
2022-09-01T03:43:50.987Z,70.93
2022-09-01T03:44:50.964Z,71.13
2022-09-01T03:45:51.071Z,71.03
2022-09-01T03:46:50.945Z,70.83
2022-09-01T03:47:50.933Z,70.83
2022-09-01T03:48:50.938Z,70.93
2022-09-01T03:49:50.909Z,70.86
2022-09-01T03:50:50.912Z,70.73
2022-09-01T03:51:50.885Z,70.96
2022-09-01T03:52:50.882Z,71.23
2022-09-01T03:53:50.862Z,71.17
2022-09-01T03:54:50.862Z,70.86
2022-09-01T03:55:50.860Z,71.26
2022-09-01T03:56:50.828Z,71.26
2022-09-01T03:57:50.831Z,71.26
2022-09-01T03:58:50.806Z,70.93
2022-09-01T03:59:50.799Z,70.96
2022-09-01T04:00:50.810Z,71.26
2022-09-01T04:01:50.869Z,70.96
2022-09-01T04:02:50.766Z,71.47
2022-09-01T04:03:51.758Z,71.37
2022-09-01T04:04:50.737Z,71.40
2022-09-01T04:05:50.740Z,71.37
2022-09-01T04:06:50.721Z,71.26
2022-09-01T04:07:50.704Z,71.60
2022-09-01T04:08:50.700Z,71.26
2022-09-01T04:09:50.692Z,71.40
2022-09-01T04:10:54.260Z,72.00
2022-09-01T04:11:50.660Z,72.00
2022-09-01T04:12:50.657Z,71.87
2022-09-01T04:13:50.638Z,71.87
2022-09-01T04:14:50.629Z,72.11
2022-09-01T04:15:50.626Z,72.00
2022-09-01T04:16:50.702Z,72.41
2022-09-01T04:17:50.600Z,71.91
2022-09-01T04:18:50.585Z,72.41
2022-09-01T04:19:50.566Z,72.00
2022-09-01T04:20:50.565Z,72.00
2022-09-01T04:21:50.744Z,71.80
2022-09-01T04:22:50.551Z,71.91
2022-09-01T04:23:50.519Z,72.21
2022-09-01T04:24:50.513Z,72.31
2022-09-01T04:25:50.509Z,72.31
2022-09-01T04:26:50.503Z,71.91
2022-09-01T04:27:50.480Z,71.91
2022-09-01T04:28:50.471Z,72.00
2022-09-01T04:29:50.457Z,72.00
2022-09-01T04:30:50.448Z,72.61
2022-09-01T04:31:50.493Z,72.44
2022-09-01T04:32:50.419Z,72.64
2022-09-01T04:33:50.407Z,72.85
2022-09-01T04:34:50.405Z,72.64
2022-09-01T04:35:50.396Z,72.64
2022-09-01T04:36:50.485Z,72.95
2022-09-01T04:37:50.358Z,73.46
2022-09-01T04:38:50.349Z,72.64
2022-09-01T04:39:54.858Z,72.95
2022-09-01T04:40:51.354Z,72.95
2022-09-01T04:41:50.434Z,72.95
2022-09-01T04:42:50.309Z,73.46
2022-09-01T04:43:50.298Z,73.25
2022-09-01T04:44:50.279Z,73.96
2022-09-01T04:45:50.355Z,73.05
2022-09-01T04:46:50.427Z,73.49
2022-09-01T04:47:50.253Z,73.55
2022-09-01T04:48:50.234Z,73.19
2022-09-01T04:49:50.227Z,73.90
2022-09-01T04:50:50.211Z,73.90
2022-09-01T04:51:53.651Z,73.59
2022-09-01T04:52:50.195Z,73.90
2022-09-01T04:53:50.190Z,74.50
2022-09-01T04:54:50.173Z,74.90
2022-09-01T04:55:50.300Z,75.41
2022-09-01T04:56:50.168Z,75.01
2022-09-01T04:57:50.230Z,74.60
2022-09-01T04:58:50.151Z,74.70
2022-09-01T04:59:50.108Z,75.01
2022-09-01T05:00:50.163Z,74.90
2022-09-01T05:01:50.137Z,74.70
2022-09-01T05:02:50.085Z,74.80
2022-09-01T05:03:50.074Z,74.80
2022-09-01T05:04:50.064Z,74.80
2022-09-01T05:05:50.061Z,75.01
2022-09-01T05:06:50.051Z,74.90
2022-09-01T05:07:50.025Z,74.94
2022-09-01T05:08:50.017Z,75.65
2022-09-01T05:09:49.998Z,75.65
2022-09-01T05:10:49.995Z,76.15
2022-09-01T05:11:49.997Z,76.15
2022-09-01T05:12:49.965Z,76.05
2022-09-01T05:13:49.964Z,75.85
2022-09-01T05:14:49.975Z,76.05
2022-09-01T05:15:50.044Z,76.46
2022-09-01T05:16:50.053Z,76.56
2022-09-01T05:17:49.908Z,75.95
2022-09-01T05:18:49.901Z,75.75
2022-09-01T05:19:49.897Z,76.66
2022-09-01T05:20:49.883Z,76.76
2022-09-01T05:21:49.890Z,76.26
2022-09-01T05:22:49.862Z,76.52
2022-09-01T05:23:49.841Z,76.02
2022-09-01T05:24:49.832Z,75.61
2022-09-01T05:25:49.821Z,74.90
2022-09-01T05:26:49.823Z,75.37
2022-09-01T05:27:50.022Z,75.37
2022-09-01T05:28:49.796Z,74.87
2022-09-01T05:29:49.786Z,74.87
2022-09-01T05:30:49.773Z,74.66
2022-09-01T05:31:50.562Z,75.24
2022-09-01T05:32:49.764Z,74.02
2022-09-01T05:33:49.735Z,73.72
2022-09-01T05:34:49.729Z,72.68
2022-09-01T05:35:49.752Z,72.38
2022-09-01T05:36:49.712Z,71.97
2022-09-01T05:37:49.694Z,72.14
2022-09-01T05:38:49.677Z,71.94
2022-09-01T05:39:49.667Z,71.53
2022-09-01T05:40:49.724Z,71.00
2022-09-01T05:41:49.674Z,70.59
2022-09-01T05:42:49.646Z,70.76
2022-09-01T05:43:49.624Z,70.86
2022-09-01T05:44:49.623Z,70.97
2022-09-01T05:46:05.618Z,70.86
2022-09-01T05:46:50.702Z,70.76
2022-09-01T05:47:49.578Z,70.36
2022-09-01T05:48:49.571Z,70.26
2022-09-01T05:49:49.553Z,70.76
2022-09-01T05:50:49.544Z,70.66
2022-09-01T05:51:50.681Z,70.62
2022-09-01T05:52:49.526Z,70.32
2022-09-01T05:53:49.508Z,69.92
2022-09-01T05:54:49.954Z,70.12
2022-09-01T05:55:49.480Z,70.22
2022-09-01T05:56:49.490Z,70.83
2022-09-01T05:57:49.462Z,70.42
2022-09-01T05:59:50.433Z,69.72
2022-09-01T06:00:49.512Z,69.52
2022-09-01T06:01:50.389Z,69.42
2022-09-01T06:02:49.534Z,69.12
2022-09-01T06:03:49.396Z,69.42
2022-09-01T06:04:49.385Z,68.51
2022-09-01T06:05:49.374Z,69.32
2022-09-01T06:07:06.573Z,69.18
2022-09-01T06:07:50.343Z,68.68
2022-09-01T06:08:49.331Z,68.88
2022-09-01T06:09:49.328Z,67.88
2022-09-01T06:10:49.318Z,67.77
2022-09-01T06:11:49.324Z,67.97
2022-09-01T06:12:49.293Z,67.97
2022-09-01T06:13:53.501Z,67.84
2022-09-01T06:14:50.263Z,67.84
2022-09-01T06:15:49.318Z,67.84
2022-09-01T06:16:49.265Z,67.74
2022-09-01T06:17:49.234Z,67.84
2022-09-01T06:18:49.219Z,67.24
2022-09-01T06:19:50.215Z,66.91
2022-09-01T06:20:49.228Z,66.40
2022-09-01T06:21:49.183Z,67.00
2022-09-01T06:22:49.198Z,66.57
2022-09-01T06:23:49.163Z,66.37
2022-09-01T06:24:54.464Z,65.87
2022-09-01T06:25:50.138Z,65.67
2022-09-01T06:26:49.129Z,66.54
2022-09-01T06:27:49.137Z,64.93
2022-09-01T06:28:49.120Z,65.23
2022-09-01T06:29:49.103Z,64.73
2022-09-01T06:30:49.093Z,64.63
2022-09-01T06:31:49.110Z,64.80
2022-09-01T06:32:49.077Z,64.60
2022-09-01T06:33:49.048Z,65.07
2022-09-01T06:34:49.045Z,63.90
2022-09-01T06:35:49.027Z,63.06
2022-09-01T06:36:49.016Z,63.17
2022-09-01T06:37:49.026Z,63.13
2022-09-01T06:38:49.002Z,62.53
2022-09-01T06:39:48.981Z,62.70
2022-09-01T06:40:51.019Z,62.30
2022-09-01T06:41:48.970Z,62.70
2022-09-01T06:42:48.969Z,62.90
2022-09-01T06:43:48.940Z,62.20
2022-09-01T06:44:48.925Z,61.10
2022-09-01T06:45:48.915Z,62.10
2022-09-01T06:46:48.940Z,62.70
2022-09-01T06:47:48.910Z,63.40
2022-09-01T06:48:48.903Z,62.93
2022-09-01T06:49:48.874Z,62.63
2022-09-01T06:51:49.868Z,62.43
2022-09-01T06:53:50.060Z,62.90
2022-09-01T06:54:48.858Z,62.43
2022-09-01T06:55:48.804Z,62.63
2022-09-01T06:56:51.517Z,62.83
2022-09-01T06:58:06.073Z,62.73
2022-09-01T06:58:49.766Z,63.13
2022-09-01T06:59:48.753Z,63.43
2022-09-01T07:00:48.742Z,63.03
2022-09-01T07:01:49.014Z,63.84
2022-09-01T07:02:48.806Z,63.73
2022-09-01T07:03:48.707Z,63.46
2022-09-01T07:04:48.703Z,64.17
2022-09-01T07:06:04.160Z,64.27
2022-09-01T07:08:05.657Z,64.30
2022-09-01T07:10:05.915Z,63.67
2022-09-01T07:16:53.305Z,65.53
2022-09-01T07:17:49.571Z,64.60
2022-09-01T07:18:58.385Z,64.73
2022-09-01T07:19:49.547Z,65.10
2022-09-01T07:23:06.255Z,65.41
2022-09-01T07:24:10.257Z,64.60
2022-09-01T07:25:11.508Z,65.41
2022-09-01T07:26:49.449Z,65.00
2022-09-01T07:27:48.470Z,64.30
2022-09-01T07:28:48.433Z,64.63
2022-09-01T07:29:48.423Z,65.03
2022-09-01T07:30:48.610Z,64.83
2022-09-01T07:31:50.000Z,64.83
2022-09-01T07:32:48.397Z,64.73
2022-09-01T07:33:53.917Z,65.13
2022-09-01T07:34:50.138Z,64.23
2022-09-01T07:39:47.281Z,64.70
2022-09-01T07:39:50.420Z,64.40
2022-09-01T07:42:30.801Z,64.50
2022-09-01T07:42:31.257Z,65.50
2022-09-01T07:42:59.393Z,64.33
2022-09-01T07:43:49.278Z,63.39
2022-09-01T07:44:48.257Z,63.49
2022-09-01T07:45:57.974Z,63.19
2022-09-01T07:47:19.549Z,63.49
2022-09-01T07:47:52.936Z,63.59
2022-09-01T07:49:29.546Z,64.00
2022-09-01T07:50:12.395Z,63.90
2022-09-01T07:51:49.208Z,63.79
2022-09-01T07:52:48.175Z,63.76
2022-09-01T07:53:48.147Z,63.56
2022-09-01T07:54:48.137Z,62.66
2022-09-01T07:55:48.131Z,62.96
2022-09-01T07:56:48.114Z,63.17
2022-09-01T07:57:48.134Z,63.17
2022-09-01T07:58:48.097Z,63.46
2022-09-01T07:59:48.080Z,63.67
2022-09-01T08:00:48.076Z,63.59
2022-09-01T08:01:48.111Z,64.10
2022-09-01T08:02:48.115Z,64.27
2022-09-01T08:03:48.035Z,63.70
2022-09-01T08:04:48.034Z,64.37
2022-09-01T08:05:48.012Z,63.56
2022-09-01T08:06:48.003Z,63.26
2022-09-01T08:07:55.087Z,63.43
2022-09-01T08:08:48.981Z,63.87
2022-09-01T08:09:47.976Z,63.17
2022-09-01T08:10:48.970Z,63.13
2022-09-01T08:12:03.490Z,63.84
2022-09-01T08:12:56.411Z,62.93
2022-09-01T08:13:52.445Z,63.43
2022-09-01T08:14:47.977Z,63.10
2022-09-01T08:16:52.416Z,62.80
2022-09-01T08:17:51.699Z,62.83
2022-09-01T08:18:48.538Z,62.20
2022-09-01T08:19:47.855Z,62.20
2022-09-01T08:20:47.847Z,62.40
2022-09-01T08:21:47.848Z,61.57
2022-09-01T08:22:47.851Z,61.57
2022-09-01T08:23:47.814Z,60.97
2022-09-01T08:24:47.803Z,61.17
2022-09-01T08:25:47.793Z,61.07
2022-09-01T08:26:47.782Z,60.97
2022-09-01T08:27:47.791Z,60.53
2022-09-01T08:28:54.952Z,60.77
2022-09-01T08:29:48.770Z,60.27
2022-09-01T08:30:52.602Z,60.36
2022-09-01T08:31:48.757Z,61.24
2022-09-01T08:32:47.730Z,60.64
2022-09-01T08:33:47.696Z,59.33
2022-09-01T08:34:47.699Z,59.74
2022-09-01T08:35:47.678Z,59.00
2022-09-01T08:36:47.675Z,60.21
2022-09-01T08:37:47.669Z,58.70
2022-09-01T08:38:47.659Z,58.40
2022-09-01T08:39:48.658Z,58.68
2022-09-01T08:40:47.731Z,59.00
2022-09-01T08:41:47.626Z,58.98
2022-09-01T08:42:47.596Z,57.87
2022-09-01T08:43:47.598Z,57.95
2022-09-01T08:44:47.584Z,57.95
2022-09-01T08:45:47.563Z,57.85
2022-09-01T08:46:47.621Z,57.52
2022-09-01T08:48:15.353Z,57.62
2022-09-01T08:49:48.882Z,57.32
2022-09-01T08:50:51.142Z,56.99
2022-09-01T08:51:48.506Z,56.99
2022-09-01T08:52:47.484Z,56.77
2022-09-01T08:53:47.485Z,56.84
2022-09-01T08:54:47.649Z,55.84
2022-09-01T08:55:47.521Z,56.14
2022-09-01T08:56:47.443Z,54.89
2022-09-01T08:57:47.427Z,54.69
2022-09-01T08:58:47.499Z,55.46
2022-09-01T08:59:47.411Z,54.86
2022-09-01T09:00:50.561Z,54.11
2022-09-01T09:01:48.466Z,53.99
2022-09-01T09:02:47.872Z,53.49
2022-09-01T09:03:47.378Z,52.47
2022-09-01T09:04:47.354Z,52.37
2022-09-01T09:05:47.337Z,51.15
2022-09-01T09:06:47.332Z,51.45
2022-09-01T09:07:47.315Z,51.32
2022-09-01T09:08:47.317Z,51.10
2022-09-01T09:09:53.707Z,51.70
2022-09-01T09:10:48.279Z,50.38
2022-09-01T09:11:47.743Z,49.56
2022-09-01T09:12:50.283Z,50.05
2022-09-01T09:13:47.276Z,49.74
2022-09-01T09:14:47.245Z,49.74
2022-09-01T09:15:47.296Z,49.46
2022-09-01T09:16:47.243Z,49.56
2022-09-01T09:17:47.206Z,49.36
2022-09-01T09:18:55.174Z,49.04
2022-09-01T09:19:48.180Z,47.87
2022-09-01T09:20:47.170Z,48.10
2022-09-01T09:21:47.504Z,48.66
2022-09-01T09:22:47.655Z,47.47
2022-09-01T09:23:47.155Z,46.56
2022-09-01T09:24:47.134Z,47.43
2022-09-01T09:25:47.120Z,45.92
2022-09-01T09:26:47.120Z,45.82
2022-09-01T09:27:47.102Z,45.90
2022-09-01T09:28:47.094Z,46.07
2022-09-01T09:29:47.068Z,45.57
2022-09-01T09:30:48.667Z,45.85
2022-09-01T09:31:47.055Z,44.76
2022-09-01T09:33:15.998Z,45.16
2022-09-01T09:33:52.116Z,46.05
2022-09-01T09:34:47.013Z,45.53
2022-09-01T09:35:47.006Z,43.53
2022-09-01T09:36:53.861Z,43.80
2022-09-01T09:37:47.990Z,43.79
2022-09-01T09:38:46.982Z,43.77
2022-09-01T09:39:46.963Z,42.78
2022-09-01T09:41:10.421Z,43.29
2022-09-01T09:41:50.472Z,42.92
2022-09-01T09:42:47.349Z,43.31
2022-09-01T09:43:47.587Z,43.51
2022-09-01T09:44:46.903Z,43.47
2022-09-01T09:45:46.956Z,42.50
2022-09-01T09:46:46.934Z,42.84
2022-09-01T09:47:46.882Z,43.75
2022-09-01T09:48:46.871Z,43.75
2022-09-01T09:49:48.845Z,43.55
2022-09-01T09:50:46.844Z,43.75
2022-09-01T09:51:46.838Z,43.13
2022-09-01T09:52:46.837Z,42.96
2022-09-01T09:53:46.812Z,42.86
2022-09-01T09:54:46.810Z,43.63
2022-09-01T09:55:46.796Z,43.80
2022-09-01T09:56:46.829Z,43.19
2022-09-01T09:57:46.781Z,41.17
2022-09-01T09:58:46.782Z,41.24
2022-09-01T09:59:58.891Z,40.92
2022-09-01T10:00:47.735Z,40.80
2022-09-01T10:01:46.760Z,39.11
2022-09-01T10:02:46.726Z,39.42
2022-09-01T10:03:46.715Z,40.53
2022-09-01T10:04:46.690Z,38.85
2022-09-01T10:05:46.670Z,39.03
2022-09-01T10:06:47.103Z,38.62
2022-09-01T10:07:46.663Z,38.91
2022-09-01T10:08:46.636Z,38.89
2022-09-01T10:09:46.626Z,38.68
2022-09-01T10:10:48.730Z,38.46
2022-09-01T10:11:47.611Z,37.48
2022-09-01T10:12:46.606Z,38.85
2022-09-01T10:13:46.590Z,37.77
2022-09-01T10:14:52.225Z,37.87
2022-09-01T10:15:49.196Z,37.97
2022-09-01T10:16:47.901Z,37.57
2022-09-01T10:17:46.555Z,39.17
2022-09-01T10:18:46.530Z,38.87
2022-09-01T10:19:46.516Z,37.59
2022-09-01T10:20:46.511Z,38.89
2022-09-01T10:21:46.496Z,39.12
2022-09-01T10:22:48.381Z,40.05
2022-09-01T10:23:46.491Z,40.39
2022-09-01T10:24:50.307Z,40.58
2022-09-01T10:25:47.792Z,40.66
2022-09-01T10:26:46.883Z,40.55
2022-09-01T10:27:46.450Z,40.05
2022-09-01T10:28:49.506Z,39.54
2022-09-01T10:29:47.815Z,39.34
2022-09-01T10:30:46.476Z,39.25
2022-09-01T10:31:46.397Z,40.05
2022-09-01T10:32:52.448Z,40.45
2022-09-01T10:33:47.371Z,40.47
2022-09-01T10:34:46.363Z,40.31
2022-09-01T10:35:46.364Z,41.41
2022-09-01T10:36:47.219Z,41.93
2022-09-01T10:37:46.338Z,42.43
2022-09-01T10:38:53.597Z,42.43
2022-09-01T10:39:47.463Z,42.44
2022-09-01T10:40:49.269Z,42.84
2022-09-01T10:41:46.288Z,43.16
2022-09-01T10:42:46.289Z,42.86
2022-09-01T10:43:46.266Z,43.65
2022-09-01T10:44:50.032Z,42.14
2022-09-01T10:45:49.977Z,42.52
2022-09-01T10:46:51.198Z,41.31
2022-09-01T10:47:46.280Z,42.50
2022-09-01T10:48:51.831Z,40.80
2022-09-01T10:49:47.195Z,40.80
2022-09-01T10:50:46.187Z,41.28
2022-09-01T10:51:56.696Z,41.17
2022-09-01T10:52:51.250Z,40.76
2022-09-01T10:53:47.042Z,40.96
2022-09-01T10:54:55.807Z,40.47
2022-09-01T10:55:47.125Z,40.76
2022-09-01T10:56:51.276Z,40.76
2022-09-01T10:57:47.124Z,40.15
2022-09-01T10:59:56.776Z,39.54
2022-09-01T11:01:21.542Z,39.04
2022-09-01T11:01:49.536Z,39.23
2022-09-01T11:02:46.420Z,39.12
2022-09-01T11:03:52.371Z,38.81
2022-09-01T11:04:47.156Z,38.14
2022-09-01T11:05:46.029Z,38.35
2022-09-01T11:07:12.417Z,39.06
2022-09-01T11:08:14.671Z,38.75
2022-09-01T11:08:50.839Z,39.23
2022-09-01T11:09:45.986Z,39.42
2022-09-01T11:10:45.971Z,39.12
2022-09-01T11:11:45.953Z,39.31
2022-09-01T11:12:45.969Z,39.40
2022-09-01T11:13:49.815Z,40.48
2022-09-01T11:14:45.929Z,39.39
2022-09-01T11:15:45.911Z,39.39
2022-09-01T11:16:46.750Z,39.07
2022-09-01T11:17:45.909Z,38.87
2022-09-01T11:18:45.886Z,38.78
2022-09-01T11:19:45.876Z,38.95
2022-09-01T11:20:45.871Z,37.67
2022-09-01T11:21:45.853Z,37.57
2022-09-01T11:22:45.846Z,37.76
2022-09-01T11:23:45.826Z,38.05
2022-09-01T11:24:49.580Z,37.77
2022-09-01T11:25:47.049Z,38.18
2022-09-01T11:26:45.798Z,37.59
2022-09-01T11:27:45.792Z,38.10
2022-09-01T11:28:45.776Z,38.99
2022-09-01T11:29:45.767Z,39.20
2022-09-01T11:30:45.756Z,39.01
2022-09-01T11:31:45.844Z,39.12
2022-09-01T11:32:46.989Z,40.19
2022-09-01T11:33:45.723Z,39.20
2022-09-01T11:34:45.735Z,39.20
2022-09-01T11:35:45.695Z,39.20
2022-09-01T11:36:45.693Z,39.11
2022-09-01T11:37:45.701Z,39.60
2022-09-01T11:38:45.669Z,39.31
2022-09-01T11:39:45.658Z,39.20
2022-09-01T11:40:45.727Z,39.40
2022-09-01T11:41:45.637Z,39.39
2022-09-01T11:42:45.859Z,39.48
2022-09-01T11:43:45.658Z,39.18
2022-09-01T11:44:45.609Z,39.18
2022-09-01T11:45:45.645Z,39.66
2022-09-01T11:46:45.589Z,38.68
2022-09-01T11:47:45.593Z,38.28
2022-09-01T11:48:45.554Z,38.70
2022-09-01T11:49:46.555Z,39.20
2022-09-01T11:50:45.540Z,39.78
2022-09-01T11:51:45.520Z,39.17
2022-09-01T11:52:45.529Z,38.58
2022-09-01T11:53:45.503Z,37.38
2022-09-01T11:54:45.495Z,37.95
2022-09-01T11:55:45.480Z,38.15
2022-09-01T11:56:45.476Z,37.24
2022-09-01T11:57:45.476Z,38.01
2022-09-01T11:58:45.456Z,37.80
2022-09-01T11:59:45.436Z,36.93
2022-09-01T12:00:45.433Z,37.74
2022-09-01T12:01:45.415Z,37.93
2022-09-01T12:02:45.512Z,37.76
2022-09-01T12:03:45.583Z,38.05
2022-09-01T12:04:45.379Z,37.46
2022-09-01T12:05:45.431Z,38.15
2022-09-01T12:06:45.357Z,37.84
2022-09-01T12:07:45.370Z,37.84
2022-09-01T12:08:45.344Z,37.65
2022-09-01T12:09:45.337Z,37.65
2022-09-01T12:10:45.316Z,38.15
2022-09-01T12:11:45.324Z,38.54
2022-09-01T12:12:45.309Z,38.44
2022-09-01T12:13:45.292Z,37.63
2022-09-01T12:15:04.886Z,38.32
2022-09-01T12:16:14.084Z,37.24
2022-09-01T12:16:46.307Z,37.72
2022-09-01T12:17:45.256Z,38.01
2022-09-01T12:18:45.236Z,37.92
2022-09-01T12:19:45.219Z,37.36
2022-09-01T12:20:45.251Z,37.55
2022-09-01T12:21:45.208Z,38.05
2022-09-01T12:22:45.185Z,37.65
2022-09-01T12:23:45.189Z,39.17
2022-09-01T12:24:45.172Z,39.07
2022-09-01T12:25:45.162Z,38.76
2022-09-01T12:26:45.153Z,37.28
2022-09-01T12:27:45.138Z,38.85
2022-09-01T12:28:45.135Z,37.48
2022-09-01T12:29:45.110Z,38.66
2022-09-01T12:30:45.097Z,39.15
2022-09-01T12:31:45.158Z,38.85
2022-09-01T12:32:45.076Z,37.87
2022-09-01T12:33:45.080Z,37.55
2022-09-01T12:34:45.054Z,38.64
2022-09-01T12:35:45.047Z,38.34
2022-09-01T12:37:45.037Z,38.72
2022-09-01T12:38:45.034Z,38.13
2022-09-01T12:39:45.097Z,37.72
2022-09-01T12:40:45.035Z,37.55
2022-09-01T12:41:44.989Z,37.65
2022-09-01T12:42:44.977Z,38.76
2022-09-01T12:43:45.560Z,38.18
2022-09-01T12:44:44.969Z,38.48
2022-09-01T12:45:44.962Z,39.28
2022-09-01T12:46:46.424Z,39.79
2022-09-01T12:47:44.932Z,40.01
2022-09-01T12:48:44.927Z,40.01
2022-09-01T12:49:50.590Z,40.23
2022-09-01T12:50:45.891Z,40.15
2022-09-01T12:51:44.893Z,41.36
2022-09-01T12:52:44.865Z,41.17
2022-09-01T12:53:44.862Z,41.87
2022-09-01T12:54:44.846Z,42.68
2022-09-01T12:55:48.063Z,42.50
2022-09-01T12:56:44.821Z,42.22
2022-09-01T12:57:44.815Z,42.82
2022-09-01T12:58:44.804Z,43.04
2022-09-01T12:59:44.785Z,43.51
2022-09-01T13:00:44.847Z,43.61
2022-09-01T13:01:44.948Z,43.61
2022-09-01T13:02:44.866Z,43.80
2022-09-01T13:03:44.756Z,43.39
2022-09-01T13:04:44.737Z,43.17
2022-09-01T13:05:44.727Z,43.87
2022-09-01T13:06:44.716Z,43.25
2022-09-01T13:07:44.698Z,42.26
2022-09-01T13:08:44.977Z,41.67
2022-09-01T13:09:45.934Z,41.97
2022-09-01T13:10:44.698Z,41.08
2022-09-01T13:12:45.796Z,41.06
2022-09-01T13:13:44.643Z,41.46
2022-09-01T13:14:44.633Z,41.43
2022-09-01T13:15:44.621Z,40.13